createdAt,value
2023-02-03T00:02:25.168Z,1.10
2023-02-03T00:04:52.995Z,1.80
2023-02-03T00:07:20.828Z,2.10
2023-02-03T00:09:48.643Z,1.80
2023-02-03T00:12:16.550Z,2.20
2023-02-03T00:14:44.512Z,1.80
2023-02-03T00:17:12.655Z,1.80
2023-02-03T00:19:40.476Z,1.70
2023-02-03T00:22:08.605Z,1.80
2023-02-03T00:24:36.643Z,1.50
2023-02-03T00:27:04.693Z,1.50
2023-02-03T00:29:32.601Z,1.50
2023-02-03T00:32:00.814Z,1.60
2023-02-03T00:34:30.337Z,1.70
2023-02-03T00:36:58.439Z,1.30
2023-02-03T00:39:26.256Z,1.60
2023-02-03T00:41:54.005Z,1.80
2023-02-03T00:44:22.189Z,1.30
2023-02-03T00:46:50.031Z,0.90
2023-02-03T00:49:18.183Z,0.90
2023-02-03T00:51:46.020Z,0.80
2023-02-03T00:54:15.488Z,0.50
2023-02-03T00:56:43.393Z,0.50
2023-02-03T00:59:11.212Z,0.40
2023-02-03T01:01:38.958Z,0.50
2023-02-03T01:04:08.832Z,0.50
2023-02-03T01:06:36.653Z,0.40
2023-02-03T01:09:04.753Z,0.40
2023-02-03T01:11:33.737Z,0.40
2023-02-03T01:14:01.858Z,0.40
2023-02-03T01:16:31.024Z,0.60
2023-02-03T01:18:59.009Z,0.40
2023-02-03T01:21:29.408Z,0.30
2023-02-03T01:23:58.524Z,0.20
2023-02-03T01:26:26.342Z,0.30
2023-02-03T01:28:59.208Z,0.30
2023-02-03T01:31:30.680Z,0.30
2023-02-03T01:33:59.076Z,0.50
2023-02-03T01:36:29.270Z,0.30
2023-02-03T01:38:57.222Z,0.50
2023-02-03T01:41:31.201Z,0.60
2023-02-03T01:44:00.137Z,0.40
2023-02-03T01:46:36.591Z,0.50
2023-02-03T01:49:25.275Z,0.40
2023-02-03T01:51:53.702Z,0.40
2023-02-03T01:54:30.056Z,0.60
2023-02-03T01:57:10.635Z,0.50
2023-02-03T01:59:38.650Z,0.30
2023-02-03T02:02:06.740Z,0.60
2023-02-03T02:04:46.323Z,0.60
2023-02-03T02:07:15.770Z,0.60
2023-02-03T02:09:44.750Z,0.50
2023-02-03T02:12:13.094Z,0.50
2023-02-03T02:14:41.134Z,0.40
2023-02-03T02:17:14.920Z,0.40
2023-02-03T02:20:01.654Z,0.60
2023-02-03T02:22:57.621Z,0.50
2023-02-03T02:25:48.764Z,0.50
2023-02-03T02:28:31.597Z,0.50
2023-02-03T02:31:33.726Z,0.70
2023-02-03T02:34:55.476Z,0.50
2023-02-03T02:38:01.101Z,0.70
2023-02-03T02:41:06.425Z,0.60
2023-02-03T02:43:49.546Z,0.60
2023-02-03T02:46:39.120Z,1.50
2023-02-03T02:49:21.791Z,0.90
2023-02-03T02:51:49.902Z,0.60
2023-02-03T02:54:20.963Z,1.00
2023-02-03T02:56:52.517Z,1.20
2023-02-03T02:59:20.293Z,0.90
2023-02-03T03:01:48.364Z,0.90
2023-02-03T03:07:50.544Z,0.80
2023-02-03T03:10:24.181Z,1.00
2023-02-03T03:12:57.181Z,1.10
2023-02-03T03:15:28.356Z,0.90
2023-02-03T03:18:30.930Z,0.60
2023-02-03T03:21:05.956Z,1.10
2023-02-03T03:23:39.851Z,0.60
2023-02-03T03:26:47.405Z,1.20
2023-02-03T03:29:18.566Z,0.80
2023-02-03T03:31:46.652Z,0.90
2023-02-03T03:34:14.697Z,0.90
2023-02-03T03:36:55.507Z,1.00
2023-02-03T03:39:54.226Z,0.90
2023-02-03T03:42:34.265Z,1.00
2023-02-03T03:45:33.071Z,0.90
2023-02-03T03:48:07.740Z,1.00
2023-02-03T03:50:40.499Z,1.00
2023-02-03T03:53:08.403Z,1.30
2023-02-03T03:55:36.341Z,1.20
2023-02-03T03:58:07.989Z,1.20
2023-02-03T04:00:37.635Z,1.60
2023-02-03T04:03:11.800Z,1.20
2023-02-03T04:05:39.886Z,1.50
2023-02-03T04:08:08.121Z,1.20
2023-02-03T04:10:40.987Z,1.20
2023-02-03T04:13:09.826Z,1.00
2023-02-03T04:15:38.055Z,1.70
2023-02-03T04:18:06.235Z,1.80
2023-02-03T04:20:34.232Z,1.20
2023-02-03T04:23:02.039Z,1.50
2023-02-03T04:25:29.972Z,1.50
2023-02-03T04:27:57.917Z,1.20
2023-02-03T04:30:26.478Z,1.60
2023-02-03T04:32:54.575Z,2.00
2023-02-03T04:35:22.311Z,2.40
2023-02-03T04:37:50.357Z,2.00
2023-02-03T04:40:18.377Z,2.00
2023-02-03T04:42:46.401Z,2.00
2023-02-03T04:45:14.352Z,2.10
2023-02-03T04:47:42.371Z,1.50
2023-02-03T04:50:10.472Z,1.60
2023-02-03T04:52:38.322Z,1.80
2023-02-03T04:55:07.397Z,1.90
2023-02-03T04:57:35.324Z,1.90
2023-02-03T05:00:03.483Z,2.10
2023-02-03T05:02:31.362Z,2.20
2023-02-03T05:04:59.401Z,2.70
2023-02-03T05:07:27.213Z,2.50
2023-02-03T05:09:55.057Z,2.70
2023-02-03T05:12:23.004Z,2.20
2023-02-03T05:14:50.898Z,1.70
2023-02-03T05:17:18.972Z,2.20
2023-02-03T05:19:47.078Z,2.50
2023-02-03T05:22:15.100Z,2.20
2023-02-03T05:24:42.919Z,1.70
2023-02-03T05:27:10.848Z,1.80
2023-02-03T05:29:38.805Z,2.30
2023-02-03T05:32:06.843Z,2.20
2023-02-03T05:34:35.172Z,2.10
2023-02-03T05:37:04.015Z,2.30
2023-02-03T05:39:32.134Z,2.40
2023-02-03T05:41:59.963Z,2.50
2023-02-03T05:44:28.105Z,2.40
2023-02-03T05:46:59.521Z,2.30
2023-02-03T05:49:27.258Z,2.40
2023-02-03T05:51:56.112Z,2.10
2023-02-03T05:54:24.218Z,2.90
2023-02-03T05:56:52.063Z,2.30
2023-02-03T05:59:20.181Z,2.50
2023-02-03T06:01:48.219Z,3.00
2023-02-03T06:04:16.312Z,3.10
2023-02-03T06:06:44.052Z,3.00
2023-02-03T06:09:11.966Z,3.00
2023-02-03T06:11:42.756Z,2.60
2023-02-03T06:14:10.678Z,2.60
2023-02-03T06:16:38.514Z,2.30
2023-02-03T06:19:06.291Z,2.80
2023-02-03T06:21:34.008Z,2.40
2023-02-03T06:24:02.189Z,1.70
2023-02-03T06:26:30.018Z,1.90
2023-02-03T06:28:57.959Z,2.40
2023-02-03T06:31:26.396Z,2.20
2023-02-03T06:33:54.518Z,2.20
2023-02-03T06:36:23.689Z,2.30
2023-02-03T06:38:51.715Z,2.50
2023-02-03T06:41:19.848Z,2.10
2023-02-03T06:43:47.775Z,2.90
2023-02-03T06:46:16.052Z,4.10
2023-02-03T06:48:43.853Z,3.10
2023-02-03T06:51:11.930Z,2.60
2023-02-03T06:53:40.139Z,2.50
2023-02-03T06:56:08.475Z,2.50
2023-02-03T06:58:36.308Z,2.60
2023-02-03T07:01:04.333Z,2.50
2023-02-03T07:03:32.347Z,2.40
2023-02-03T07:06:00.107Z,2.20
2023-02-03T07:08:27.917Z,1.90
2023-02-03T07:10:56.053Z,3.20
2023-02-03T07:13:23.985Z,3.10
2023-02-03T07:15:52.679Z,2.80
2023-02-03T07:18:45.629Z,3.90
2023-02-03T07:21:13.810Z,4.50
2023-02-03T07:23:41.755Z,3.60
2023-02-03T07:26:10.439Z,3.50
2023-02-03T07:28:38.223Z,3.90
2023-02-03T07:31:08.197Z,3.90
2023-02-03T07:33:37.931Z,2.70
2023-02-03T07:36:07.624Z,3.30
2023-02-03T07:38:35.556Z,3.10
2023-02-03T07:41:04.420Z,3.60
2023-02-03T07:43:32.330Z,3.80
2023-02-03T07:46:01.817Z,3.50
2023-02-03T07:48:29.740Z,3.40
2023-02-03T07:50:57.672Z,2.60
2023-02-03T07:53:25.703Z,3.10
2023-02-03T07:55:53.733Z,3.60
2023-02-03T07:58:21.553Z,2.90
2023-02-03T08:00:49.679Z,4.10
2023-02-03T08:03:17.532Z,4.30
2023-02-03T08:05:45.652Z,4.10
2023-02-03T08:08:13.691Z,4.50
2023-02-03T08:10:41.616Z,3.70
2023-02-03T08:13:09.650Z,3.00
2023-02-03T08:15:37.693Z,3.50
2023-02-03T08:18:05.625Z,2.70
2023-02-03T08:20:33.386Z,3.50
2023-02-03T08:23:01.271Z,3.10
2023-02-03T08:25:29.306Z,3.30
2023-02-03T08:27:57.269Z,3.20
2023-02-03T08:30:26.033Z,2.70
2023-02-03T08:32:55.166Z,3.00
2023-02-03T08:35:23.088Z,3.10
2023-02-03T08:37:51.316Z,2.90
2023-02-03T08:40:19.514Z,2.60
2023-02-03T08:42:47.488Z,3.00
2023-02-03T08:45:15.479Z,4.50
2023-02-03T08:47:43.551Z,4.70
2023-02-03T08:50:11.599Z,4.60
2023-02-03T08:52:40.439Z,4.50
2023-02-03T08:55:08.672Z,4.00
2023-02-03T08:57:36.829Z,3.10
2023-02-03T09:00:06.381Z,4.90
2023-02-03T09:02:34.328Z,4.40
2023-02-03T09:05:02.168Z,3.60
2023-02-03T09:07:30.329Z,4.40
2023-02-03T09:09:58.411Z,4.30
2023-02-03T09:12:26.684Z,4.00
2023-02-03T09:14:54.563Z,4.90
2023-02-03T09:17:22.330Z,4.80
2023-02-03T09:19:50.379Z,5.20
2023-02-03T09:22:18.359Z,6.10
2023-02-03T09:24:46.503Z,5.40
2023-02-03T09:27:14.235Z,5.40
2023-02-03T09:29:42.464Z,5.00
2023-02-03T09:32:10.923Z,5.30
2023-02-03T09:34:41.360Z,5.70
2023-02-03T09:37:09.164Z,5.00
2023-02-03T09:39:37.076Z,5.00
2023-02-03T09:42:19.684Z,6.40
2023-02-03T09:45:11.505Z,7.00
2023-02-03T09:47:41.654Z,6.50
2023-02-03T09:50:18.253Z,7.00
2023-02-03T09:52:46.244Z,6.30
2023-02-03T09:55:34.164Z,6.70
2023-02-03T09:58:21.019Z,6.60
2023-02-03T10:00:55.693Z,5.90
2023-02-03T10:03:48.119Z,4.30
2023-02-03T10:06:28.910Z,4.90
2023-02-03T10:09:09.785Z,4.20
2023-02-03T10:12:15.424Z,5.10
2023-02-03T10:15:25.196Z,4.60
2023-02-03T10:17:57.238Z,3.60
2023-02-03T10:20:30.685Z,4.20
2023-02-03T10:23:02.088Z,4.80
2023-02-03T10:25:59.069Z,4.20
2023-02-03T10:28:30.511Z,3.80
2023-02-03T10:31:01.067Z,3.80
2023-02-03T10:33:31.648Z,3.70
2023-02-03T10:36:26.993Z,3.50
2023-02-03T10:39:03.659Z,4.80
2023-02-03T10:41:31.863Z,5.10
2023-02-03T10:44:06.192Z,4.30
2023-02-03T10:46:36.292Z,4.30
2023-02-03T10:49:04.223Z,4.10
2023-02-03T10:51:50.853Z,5.00
2023-02-03T10:54:32.931Z,4.50
2023-02-03T10:57:13.075Z,5.80
2023-02-03T10:59:46.097Z,6.30
2023-02-03T11:02:40.526Z,6.00
2023-02-03T11:05:24.880Z,6.30
2023-02-03T11:07:53.922Z,6.90
2023-02-03T11:10:37.897Z,5.00
2023-02-03T11:13:22.790Z,7.10
2023-02-03T11:16:00.609Z,7.90
2023-02-03T11:18:56.894Z,6.00
2023-02-03T11:21:27.763Z,7.60
2023-02-03T11:24:32.915Z,8.10
2023-02-03T11:27:05.007Z,10.80
2023-02-03T11:29:35.628Z,6.20
2023-02-03T11:32:07.690Z,6.10
2023-02-03T11:34:43.007Z,5.20
2023-02-03T11:37:27.787Z,4.40
2023-02-03T11:40:18.286Z,4.50
2023-02-03T11:42:49.167Z,4.50
2023-02-03T11:45:35.746Z,3.90
2023-02-03T11:48:31.500Z,3.20
2023-02-03T11:51:36.631Z,2.60
2023-02-03T11:54:36.007Z,2.90
2023-02-03T11:57:28.680Z,2.80
2023-02-03T12:00:27.364Z,2.00
2023-02-03T12:03:14.403Z,3.40
2023-02-03T12:06:01.151Z,3.20
2023-02-03T12:09:22.867Z,2.80
2023-02-03T12:12:19.855Z,3.10
2023-02-03T12:15:47.022Z,3.70
2023-02-03T12:18:20.949Z,3.60
2023-02-03T12:21:10.055Z,3.90
2023-02-03T12:24:00.196Z,4.40
2023-02-03T12:26:40.485Z,4.60
2023-02-03T12:29:15.790Z,4.90
2023-02-03T12:31:55.216Z,4.30
2023-02-03T12:34:29.538Z,4.90
2023-02-03T12:37:23.718Z,5.60
2023-02-03T12:40:01.309Z,5.20
2023-02-03T12:42:38.180Z,5.40
2023-02-03T12:45:09.120Z,4.80
2023-02-03T12:48:05.182Z,6.00
2023-02-03T12:50:41.044Z,5.40
2023-02-03T12:53:32.765Z,6.40
2023-02-03T12:56:07.405Z,6.70
2023-02-03T12:58:54.715Z,5.00
2023-02-03T13:01:32.586Z,4.60
2023-02-03T13:04:24.070Z,6.00
2023-02-03T13:07:03.738Z,5.50
2023-02-03T13:09:41.554Z,6.20
2023-02-03T13:12:37.756Z,5.80
2023-02-03T13:15:37.989Z,4.50
2023-02-03T13:18:26.531Z,5.30
2023-02-03T13:20:55.270Z,5.90
2023-02-03T13:23:23.799Z,7.50
2023-02-03T13:26:03.993Z,6.20
2023-02-03T13:29:20.197Z,7.20
2023-02-03T13:32:09.329Z,7.60
2023-02-03T13:34:45.892Z,5.70
2023-02-03T13:37:45.610Z,6.00
2023-02-03T13:40:41.336Z,6.50
2023-02-03T13:43:20.774Z,7.00
2023-02-03T13:46:00.353Z,6.10
2023-02-03T13:48:30.886Z,5.20
2023-02-03T13:51:18.897Z,6.90
2023-02-03T13:53:47.246Z,7.30
2023-02-03T13:56:22.240Z,7.20
2023-02-03T13:59:04.276Z,7.10
2023-02-03T14:01:39.010Z,7.60
2023-02-03T14:04:27.756Z,7.50
2023-02-03T14:07:03.967Z,5.80
2023-02-03T14:09:34.293Z,6.70
2023-02-03T14:12:36.196Z,6.50
2023-02-03T14:15:26.813Z,6.80
2023-02-03T14:18:26.211Z,6.00
2023-02-03T14:21:17.024Z,5.50
2023-02-03T14:23:50.719Z,6.00
2023-02-03T14:29:40.349Z,6.80
2023-02-03T14:32:09.676Z,5.80
2023-02-03T14:34:41.569Z,7.00
2023-02-03T14:37:21.949Z,6.50
2023-02-03T14:39:55.939Z,6.30
2023-02-03T14:43:04.886Z,5.50
2023-02-03T14:46:09.946Z,5.10
2023-02-03T14:49:06.070Z,4.90
2023-02-03T14:51:52.586Z,5.90
2023-02-03T14:55:25.253Z,5.50
2023-02-03T14:57:57.020Z,5.20
2023-02-03T15:00:29.290Z,7.50
2023-02-03T15:03:15.025Z,7.00
2023-02-03T15:05:54.931Z,7.60
2023-02-03T15:08:40.959Z,7.10
2023-02-03T15:11:26.995Z,9.60
2023-02-03T15:13:57.304Z,7.30
2023-02-03T15:16:25.324Z,7.20
2023-02-03T15:19:00.784Z,6.50
2023-02-03T15:21:28.511Z,6.20
2023-02-03T15:23:56.356Z,4.90
2023-02-03T15:26:26.174Z,5.00
2023-02-03T15:28:59.246Z,4.70
2023-02-03T15:31:41.899Z,3.90
2023-02-03T15:34:29.440Z,3.40
2023-02-03T15:37:00.414Z,4.50
2023-02-03T15:39:39.456Z,4.60
2023-02-03T15:42:13.602Z,5.80
2023-02-03T15:44:47.379Z,6.10
2023-02-03T15:47:28.441Z,5.80
2023-02-03T15:50:02.944Z,4.90
2023-02-03T15:52:30.930Z,4.40
2023-02-03T15:55:32.660Z,4.30
2023-02-03T15:58:00.738Z,3.30
2023-02-03T16:00:38.246Z,2.70
2023-02-03T16:03:16.211Z,3.70
2023-02-03T16:05:48.836Z,3.90
2023-02-03T16:08:52.776Z,5.10
2023-02-03T16:11:41.739Z,4.20
2023-02-03T16:14:12.596Z,4.80
2023-02-03T16:17:03.974Z,3.80
2023-02-03T16:19:34.709Z,4.90
2023-02-03T16:22:02.800Z,4.20
2023-02-03T16:24:33.747Z,5.40
2023-02-03T16:27:30.638Z,5.20
2023-02-03T16:30:23.102Z,5.30
2023-02-03T16:33:22.090Z,6.10
2023-02-03T16:36:08.732Z,5.60
2023-02-03T16:38:55.340Z,5.50
2023-02-03T16:41:42.068Z,4.80
2023-02-03T16:44:30.584Z,4.70
2023-02-03T16:47:17.361Z,5.70
2023-02-03T16:50:04.054Z,4.10
2023-02-03T16:52:32.152Z,4.60
2023-02-03T16:54:59.991Z,5.00
2023-02-03T16:57:27.899Z,6.10
2023-02-03T16:59:55.827Z,5.40
2023-02-03T17:02:23.762Z,4.80
2023-02-03T17:04:51.831Z,4.50
2023-02-03T17:07:19.716Z,4.70
2023-02-03T17:09:47.603Z,3.40
2023-02-03T17:12:15.663Z,5.70
2023-02-03T17:14:43.743Z,4.70
2023-02-03T17:17:11.793Z,4.60
2023-02-03T17:19:39.639Z,5.20
2023-02-03T17:22:08.854Z,4.10
2023-02-03T17:24:36.874Z,4.70
2023-02-03T17:27:04.881Z,4.60
2023-02-03T17:29:32.952Z,3.60
2023-02-03T17:32:00.996Z,5.10
2023-02-03T17:34:29.197Z,5.20
2023-02-03T17:36:57.222Z,5.30
2023-02-03T17:55:43.234Z,5.50
2023-02-03T17:58:14.628Z,5.20
2023-02-03T18:00:42.621Z,6.10
2023-02-03T18:03:10.634Z,4.60
2023-02-03T18:05:39.487Z,3.10
2023-02-03T18:08:16.161Z,4.60
2023-02-03T18:10:44.971Z,3.10
2023-02-03T18:13:13.031Z,4.50
2023-02-03T18:15:40.964Z,3.50
2023-02-03T18:18:09.126Z,4.40
2023-02-03T18:20:37.297Z,7.20
2023-02-03T18:23:05.714Z,5.20
2023-02-03T18:25:35.808Z,4.30
2023-02-03T18:28:04.325Z,4.70
2023-02-03T18:30:32.694Z,4.90
2023-02-03T18:33:02.151Z,4.90
2023-02-03T18:35:30.362Z,5.20
2023-02-03T18:37:58.184Z,3.90
2023-02-03T18:40:26.559Z,5.50
2023-02-03T18:42:56.375Z,4.20
2023-02-03T18:45:24.811Z,6.00
2023-02-03T18:47:52.721Z,3.00
2023-02-03T18:50:20.759Z,4.40
2023-02-03T18:52:48.717Z,3.80
2023-02-03T18:55:17.300Z,4.50
2023-02-03T18:57:45.326Z,5.40
2023-02-03T19:00:14.517Z,6.00
2023-02-03T19:02:42.725Z,6.10
2023-02-03T19:05:11.794Z,5.30
2023-02-03T19:07:39.955Z,5.50
2023-02-03T19:10:09.022Z,8.50
2023-02-03T19:12:36.976Z,5.40
2023-02-03T19:15:06.028Z,4.60
2023-02-03T19:17:34.068Z,4.30
2023-02-03T19:20:02.952Z,5.60
2023-02-03T19:22:31.298Z,6.70
2023-02-03T19:24:59.569Z,6.80
2023-02-03T19:27:28.116Z,6.20
2023-02-03T19:29:56.348Z,7.30
2023-02-03T19:32:25.411Z,7.40
2023-02-03T19:34:54.324Z,6.60
2023-02-03T19:37:22.473Z,5.90
2023-02-03T19:39:51.686Z,5.10
2023-02-03T19:42:19.735Z,5.50
2023-02-03T19:44:48.290Z,6.50
2023-02-03T19:47:16.588Z,6.90
2023-02-03T19:49:44.685Z,6.70
2023-02-03T19:52:12.722Z,6.90
2023-02-03T19:54:41.048Z,6.00
2023-02-03T19:57:08.925Z,7.30
2023-02-03T19:59:36.829Z,7.10
2023-02-03T20:02:13.809Z,7.70
2023-02-03T20:04:44.189Z,7.30
2023-02-03T20:07:12.886Z,6.90
2023-02-03T20:09:40.890Z,6.40
2023-02-03T20:12:08.959Z,5.00
2023-02-03T20:14:37.130Z,6.80
2023-02-03T20:17:06.259Z,6.40
2023-02-03T20:19:34.224Z,8.00
2023-02-03T20:22:02.105Z,6.20
2023-02-03T20:24:30.139Z,6.70
2023-02-03T20:26:57.887Z,5.20
2023-02-03T20:29:26.120Z,5.10
2023-02-03T20:31:54.925Z,6.80
2023-02-03T20:34:23.027Z,6.40
2023-02-03T20:36:51.675Z,6.60
2023-02-03T20:39:20.793Z,6.20
2023-02-03T20:41:49.976Z,6.40
2023-02-03T20:44:18.503Z,6.30
2023-02-03T20:46:46.949Z,7.10
2023-02-03T20:49:17.144Z,7.10
2023-02-03T20:51:46.587Z,5.90
2023-02-03T20:54:21.613Z,6.00
2023-02-03T20:56:49.558Z,5.50
2023-02-03T20:59:19.268Z,4.40
2023-02-03T21:01:47.851Z,5.40
2023-02-03T21:04:36.233Z,6.80
2023-02-03T21:07:14.811Z,7.30
2023-02-03T21:09:42.986Z,5.20
2023-02-03T21:12:15.127Z,6.20
2023-02-03T21:14:44.903Z,7.40
2023-02-03T21:17:15.804Z,7.00
2023-02-03T21:19:43.922Z,8.00
2023-02-03T21:22:23.989Z,8.00
2023-02-03T21:24:58.932Z,8.50
2023-02-03T21:27:34.238Z,6.40
2023-02-03T21:30:22.823Z,4.70
2023-02-03T21:32:51.055Z,5.30
2023-02-03T21:35:24.188Z,5.60
2023-02-03T21:37:57.038Z,6.20
2023-02-03T21:40:28.092Z,4.40
2023-02-03T21:42:56.457Z,4.30
2023-02-03T21:45:41.582Z,5.80
2023-02-03T21:48:34.462Z,5.20
2023-02-03T21:51:17.273Z,6.10
2023-02-03T21:53:58.237Z,6.50
2023-02-03T21:56:37.834Z,5.30
2023-02-03T21:59:15.457Z,4.30
2023-02-03T22:01:43.677Z,4.00
2023-02-03T22:04:11.644Z,4.20
2023-02-03T22:06:44.643Z,2.20
2023-02-03T22:09:15.022Z,2.20
2023-02-03T22:11:43.060Z,2.10
2023-02-03T22:14:10.856Z,1.90
2023-02-03T22:16:38.772Z,1.70
2023-02-03T22:19:06.922Z,2.10
2023-02-03T22:21:35.363Z,2.10
2023-02-03T22:24:03.515Z,2.60
2023-02-03T22:26:31.393Z,2.90
2023-02-03T22:28:59.503Z,2.90
2023-02-03T22:31:27.370Z,2.60
2023-02-03T22:33:55.335Z,3.00
2023-02-03T22:36:23.670Z,1.80
2023-02-03T22:38:52.638Z,3.20
2023-02-03T22:41:21.072Z,2.50
2023-02-03T22:43:49.163Z,2.60
2023-02-03T22:46:17.470Z,2.70
2023-02-03T22:48:46.042Z,2.70
2023-02-03T22:51:13.828Z,2.20
2023-02-03T22:53:41.865Z,1.90
2023-02-03T22:56:11.259Z,1.40
2023-02-03T22:58:39.165Z,1.30
2023-02-03T23:01:07.224Z,1.60
2023-02-03T23:03:35.198Z,1.50
2023-02-03T23:06:03.587Z,1.50
2023-02-03T23:08:31.822Z,2.20
2023-02-03T23:11:00.226Z,2.50
2023-02-03T23:13:28.935Z,4.70
2023-02-03T23:15:56.801Z,7.70
2023-02-03T23:18:24.675Z,6.10
2023-02-03T23:20:52.549Z,3.10
2023-02-03T23:23:20.569Z,2.30
2023-02-03T23:25:48.708Z,2.20
2023-02-03T23:28:17.152Z,1.60
2023-02-03T23:30:45.140Z,1.70
2023-02-03T23:33:13.240Z,2.80
2023-02-03T23:35:47.005Z,4.20
2023-02-03T23:38:15.697Z,3.20
2023-02-03T23:40:44.705Z,6.30
2023-02-03T23:43:12.867Z,4.90
2023-02-03T23:45:41.316Z,5.10
2023-02-03T23:48:09.444Z,6.10
2023-02-03T23:50:37.246Z,5.90
2023-02-03T23:53:05.381Z,5.80
2023-02-03T23:55:33.651Z,7.50
2023-02-03T23:58:01.944Z,8.40
